sensor_id;sensor_type;location;lat;lon;timestamp;P1;durP1;ratioP1;P2;durP2;ratioP2
21677;SDS011;11000;50.360;7.582;2023-07-29T00:01:50;3.40;;;1.30;;
21677;SDS011;11000;50.360;7.582;2023-07-29T00:04:11;0.80;;;0.80;;
21677;SDS011;11000;50.360;7.582;2023-07-29T00:06:33;1.80;;;1.10;;
21677;SDS011;11000;50.360;7.582;2023-07-29T00:08:54;1.20;;;1.10;;
21677;SDS011;11000;50.360;7.582;2023-07-29T00:11:16;4.63;;;1.30;;
21677;SDS011;11000;50.360;7.582;2023-07-29T00:13:37;3.07;;;1.40;;
21677;SDS011;11000;50.360;7.582;2023-07-29T00:15:58;1.13;;;1.13;;
21677;SDS011;11000;50.360;7.582;2023-07-29T00:18:19;2.10;;;1.00;;
21677;SDS011;11000;50.360;7.582;2023-07-29T00:20:39;5.90;;;1.20;;
21677;SDS011;11000;50.360;7.582;2023-07-29T00:23:00;1.17;;;1.00;;
21677;SDS011;11000;50.360;7.582;2023-07-29T00:25:25;2.67;;;1.13;;
21677;SDS011;11000;50.360;7.582;2023-07-29T00:27:45;4.00;;;1.33;;
21677;SDS011;11000;50.360;7.582;2023-07-29T00:30:06;2.97;;;1.00;;
21677;SDS011;11000;50.360;7.582;2023-07-29T00:32:30;3.50;;;1.13;;
21677;SDS011;11000;50.360;7.582;2023-07-29T00:34:53;3.00;;;1.20;;
21677;SDS011;11000;50.360;7.582;2023-07-29T00:37:21;2.50;;;1.13;;
21677;SDS011;11000;50.360;7.582;2023-07-29T00:39:44;1.40;;;1.30;;
21677;SDS011;11000;50.360;7.582;2023-07-29T00:42:05;1.93;;;1.10;;
21677;SDS011;11000;50.360;7.582;2023-07-29T00:44:26;1.37;;;1.10;;
21677;SDS011;11000;50.360;7.582;2023-07-29T00:46:47;3.77;;;1.10;;
21677;SDS011;11000;50.360;7.582;2023-07-29T00:49:12;3.13;;;1.00;;
21677;SDS011;11000;50.360;7.582;2023-07-29T00:51:32;2.17;;;1.20;;
21677;SDS011;11000;50.360;7.582;2023-07-29T00:53:53;1.20;;;1.20;;
21677;SDS011;11000;50.360;7.582;2023-07-29T00:56:14;2.07;;;1.00;;
21677;SDS011;11000;50.360;7.582;2023-07-29T00:58:35;2.17;;;1.30;;
21677;SDS011;11000;50.360;7.582;2023-07-29T01:00:56;2.33;;;1.53;;
21677;SDS011;11000;50.360;7.582;2023-07-29T01:03:17;1.20;;;1.10;;
21677;SDS011;11000;50.360;7.582;2023-07-29T01:06:26;4.50;;;1.47;;
21677;SDS011;11000;50.360;7.582;2023-07-29T01:08:36;1.20;;;1.10;;
21677;SDS011;11000;50.360;7.582;2023-07-29T01:11:10;1.03;;;1.03;;
21677;SDS011;11000;50.360;7.582;2023-07-29T01:13:50;2.43;;;1.10;;
21677;SDS011;11000;50.360;7.582;2023-07-29T01:16:34;7.57;;;2.10;;
21677;SDS011;11000;50.360;7.582;2023-07-29T01:18:59;2.63;;;2.07;;
21677;SDS011;11000;50.360;7.582;2023-07-29T01:21:24;3.07;;;1.50;;
21677;SDS011;11000;50.360;7.582;2023-07-29T01:23:51;1.40;;;1.30;;
21677;SDS011;11000;50.360;7.582;2023-07-29T01:26:13;2.07;;;1.40;;
21677;SDS011;11000;50.360;7.582;2023-07-29T01:28:34;2.30;;;1.60;;
21677;SDS011;11000;50.360;7.582;2023-07-29T01:34:06;1.60;;;1.13;;
21677;SDS011;11000;50.360;7.582;2023-07-29T01:36:33;2.83;;;1.73;;
21677;SDS011;11000;50.360;7.582;2023-07-29T01:39:00;3.50;;;2.00;;
21677;SDS011;11000;50.360;7.582;2023-07-29T01:41:23;2.77;;;1.60;;
21677;SDS011;11000;50.360;7.582;2023-07-29T01:43:45;1.60;;;1.50;;
21677;SDS011;11000;50.360;7.582;2023-07-29T01:46:09;4.27;;;1.53;;
21677;SDS011;11000;50.360;7.582;2023-07-29T01:48:32;4.63;;;1.60;;
21677;SDS011;11000;50.360;7.582;2023-07-29T01:50:53;3.73;;;1.50;;
21677;SDS011;11000;50.360;7.582;2023-07-29T01:53:13;1.60;;;1.50;;
21677;SDS011;11000;50.360;7.582;2023-07-29T01:55:34;3.53;;;2.10;;
21677;SDS011;11000;50.360;7.582;2023-07-29T01:57:55;3.33;;;1.70;;
21677;SDS011;11000;50.360;7.582;2023-07-29T02:00:16;2.53;;;1.50;;
21677;SDS011;11000;50.360;7.582;2023-07-29T02:02:37;1.97;;;1.73;;
21677;SDS011;11000;50.360;7.582;2023-07-29T02:04:57;2.97;;;2.13;;
21677;SDS011;11000;50.360;7.582;2023-07-29T02:07:18;4.13;;;1.77;;
21677;SDS011;11000;50.360;7.582;2023-07-29T02:09:40;3.43;;;2.33;;
21677;SDS011;11000;50.360;7.582;2023-07-29T02:12:01;1.90;;;1.80;;
21677;SDS011;11000;50.360;7.582;2023-07-29T02:14:25;4.40;;;2.30;;
21677;SDS011;11000;50.360;7.582;2023-07-29T02:16:46;2.03;;;1.87;;
21677;SDS011;11000;50.360;7.582;2023-07-29T02:19:07;2.97;;;2.00;;
21677;SDS011;11000;50.360;7.582;2023-07-29T02:21:27;2.37;;;2.00;;
21677;SDS011;11000;50.360;7.582;2023-07-29T02:23:48;1.97;;;1.87;;
21677;SDS011;11000;50.360;7.582;2023-07-29T02:26:08;5.50;;;2.30;;
21677;SDS011;11000;50.360;7.582;2023-07-29T02:28:29;3.37;;;2.10;;
21677;SDS011;11000;50.360;7.582;2023-07-29T02:30:54;2.30;;;2.10;;
21677;SDS011;11000;50.360;7.582;2023-07-29T02:33:31;5.10;;;2.20;;
21677;SDS011;11000;50.360;7.582;2023-07-29T02:35:52;3.77;;;2.30;;
21677;SDS011;11000;50.360;7.582;2023-07-29T02:38:12;3.53;;;2.27;;
21677;SDS011;11000;50.360;7.582;2023-07-29T02:40:33;4.07;;;2.50;;
21677;SDS011;11000;50.360;7.582;2023-07-29T02:42:57;3.63;;;2.20;;
21677;SDS011;11000;50.360;7.582;2023-07-29T02:45:18;2.77;;;2.20;;
21677;SDS011;11000;50.360;7.582;2023-07-29T02:47:38;5.20;;;2.27;;
21677;SDS011;11000;50.360;7.582;2023-07-29T02:49:59;3.13;;;2.80;;
21677;SDS011;11000;50.360;7.582;2023-07-29T02:52:19;2.70;;;2.20;;
21677;SDS011;11000;50.360;7.582;2023-07-29T02:54:40;3.30;;;2.27;;
21677;SDS011;11000;50.360;7.582;2023-07-29T02:57:00;4.30;;;2.30;;
21677;SDS011;11000;50.360;7.582;2023-07-29T02:59:21;2.83;;;2.50;;
21677;SDS011;11000;50.360;7.582;2023-07-29T03:01:42;3.97;;;2.27;;
21677;SDS011;11000;50.360;7.582;2023-07-29T03:04:02;5.20;;;2.30;;
21677;SDS011;11000;50.360;7.582;2023-07-29T03:06:23;6.27;;;2.40;;
21677;SDS011;11000;50.360;7.582;2023-07-29T03:08:44;2.67;;;2.47;;
21677;SDS011;11000;50.360;7.582;2023-07-29T03:11:09;3.50;;;2.57;;
21677;SDS011;11000;50.360;7.582;2023-07-29T03:13:33;4.63;;;2.63;;
21677;SDS011;11000;50.360;7.582;2023-07-29T03:15:54;2.83;;;2.57;;
21677;SDS011;11000;50.360;7.582;2023-07-29T03:18:24;2.47;;;2.27;;
21677;SDS011;11000;50.360;7.582;2023-07-29T03:20:44;2.80;;;2.60;;
21677;SDS011;11000;50.360;7.582;2023-07-29T03:23:05;4.47;;;2.60;;
21677;SDS011;11000;50.360;7.582;2023-07-29T03:25:26;3.40;;;2.67;;
21677;SDS011;11000;50.360;7.582;2023-07-29T03:27:46;5.33;;;2.30;;
21677;SDS011;11000;50.360;7.582;2023-07-29T03:30:09;3.97;;;2.70;;
21677;SDS011;11000;50.360;7.582;2023-07-29T03:32:30;2.97;;;2.30;;
21677;SDS011;11000;50.360;7.582;2023-07-29T03:34:50;2.50;;;2.30;;
21677;SDS011;11000;50.360;7.582;2023-07-29T03:37:11;6.73;;;2.63;;
21677;SDS011;11000;50.360;7.582;2023-07-29T03:39:31;3.07;;;2.77;;
21677;SDS011;11000;50.360;7.582;2023-07-29T03:41:52;3.00;;;2.53;;
21677;SDS011;11000;50.360;7.582;2023-07-29T03:44:13;4.33;;;3.10;;
21677;SDS011;11000;50.360;7.582;2023-07-29T03:46:33;3.93;;;2.90;;
21677;SDS011;11000;50.360;7.582;2023-07-29T03:48:54;3.67;;;3.30;;
21677;SDS011;11000;50.360;7.582;2023-07-29T03:51:14;4.27;;;3.80;;
21677;SDS011;11000;50.360;7.582;2023-07-29T03:53:35;3.93;;;2.93;;
21677;SDS011;11000;50.360;7.582;2023-07-29T03:55:55;4.80;;;3.17;;
21677;SDS011;11000;50.360;7.582;2023-07-29T03:58:16;2.70;;;2.50;;
21677;SDS011;11000;50.360;7.582;2023-07-29T04:00:36;3.43;;;2.43;;
21677;SDS011;11000;50.360;7.582;2023-07-29T04:02:57;7.17;;;3.03;;
21677;SDS011;11000;50.360;7.582;2023-07-29T04:05:17;3.67;;;2.27;;
21677;SDS011;11000;50.360;7.582;2023-07-29T04:07:38;3.60;;;2.60;;
21677;SDS011;11000;50.360;7.582;2023-07-29T04:09:59;2.73;;;2.53;;
21677;SDS011;11000;50.360;7.582;2023-07-29T04:12:20;2.37;;;2.23;;
21677;SDS011;11000;50.360;7.582;2023-07-29T04:14:41;2.57;;;2.37;;
21677;SDS011;11000;50.360;7.582;2023-07-29T04:17:02;2.83;;;2.63;;
21677;SDS011;11000;50.360;7.582;2023-07-29T04:19:22;2.70;;;2.50;;
21677;SDS011;11000;50.360;7.582;2023-07-29T04:21:43;2.87;;;2.50;;
21677;SDS011;11000;50.360;7.582;2023-07-29T04:24:03;3.20;;;2.90;;
21677;SDS011;11000;50.360;7.582;2023-07-29T04:26:24;2.40;;;2.20;;
21677;SDS011;11000;50.360;7.582;2023-07-29T04:28:44;3.23;;;2.50;;
21677;SDS011;11000;50.360;7.582;2023-07-29T04:31:05;3.77;;;2.03;;
21677;SDS011;11000;50.360;7.582;2023-07-29T04:33:28;3.07;;;2.40;;
21677;SDS011;11000;50.360;7.582;2023-07-29T04:35:50;2.90;;;2.40;;
21677;SDS011;11000;50.360;7.582;2023-07-29T04:38:11;4.07;;;2.07;;
21677;SDS011;11000;50.360;7.582;2023-07-29T04:40:34;4.47;;;1.80;;
21677;SDS011;11000;50.360;7.582;2023-07-29T04:42:55;2.23;;;1.93;;
21677;SDS011;11000;50.360;7.582;2023-07-29T04:45:15;2.50;;;1.90;;
21677;SDS011;11000;50.360;7.582;2023-07-29T04:47:36;2.60;;;2.00;;
21677;SDS011;11000;50.360;7.582;2023-07-29T04:49:57;1.70;;;1.60;;
21677;SDS011;11000;50.360;7.582;2023-07-29T04:52:17;2.50;;;1.77;;
21677;SDS011;11000;50.360;7.582;2023-07-29T04:54:39;2.40;;;2.20;;
21677;SDS011;11000;50.360;7.582;2023-07-29T04:57:00;3.33;;;2.23;;
21677;SDS011;11000;50.360;7.582;2023-07-29T04:59:20;2.27;;;2.07;;
21677;SDS011;11000;50.360;7.582;2023-07-29T05:01:41;4.47;;;1.60;;
21677;SDS011;11000;50.360;7.582;2023-07-29T05:04:03;2.50;;;1.97;;
21677;SDS011;11000;50.360;7.582;2023-07-29T05:06:23;2.00;;;1.70;;
21677;SDS011;11000;50.360;7.582;2023-07-29T05:08:44;3.37;;;2.10;;
21677;SDS011;11000;50.360;7.582;2023-07-29T05:11:05;2.50;;;2.30;;
21677;SDS011;11000;50.360;7.582;2023-07-29T05:13:26;3.17;;;2.00;;
21677;SDS011;11000;50.360;7.582;2023-07-29T05:15:47;3.43;;;2.00;;
21677;SDS011;11000;50.360;7.582;2023-07-29T05:18:08;2.03;;;1.73;;
21677;SDS011;11000;50.360;7.582;2023-07-29T05:20:28;3.67;;;1.87;;
21677;SDS011;11000;50.360;7.582;2023-07-29T05:22:49;2.57;;;1.90;;
21677;SDS011;11000;50.360;7.582;2023-07-29T05:25:09;3.53;;;1.87;;
21677;SDS011;11000;50.360;7.582;2023-07-29T05:27:30;3.13;;;2.13;;
21677;SDS011;11000;50.360;7.582;2023-07-29T05:29:50;2.77;;;2.20;;
21677;SDS011;11000;50.360;7.582;2023-07-29T05:32:11;3.33;;;2.43;;
21677;SDS011;11000;50.360;7.582;2023-07-29T05:34:31;3.37;;;2.13;;
21677;SDS011;11000;50.360;7.582;2023-07-29T05:36:52;3.37;;;2.10;;
21677;SDS011;11000;50.360;7.582;2023-07-29T05:39:13;2.70;;;2.10;;
21677;SDS011;11000;50.360;7.582;2023-07-29T05:41:33;3.30;;;2.20;;
21677;SDS011;11000;50.360;7.582;2023-07-29T05:43:54;2.27;;;2.00;;
21677;SDS011;11000;50.360;7.582;2023-07-29T05:46:14;4.23;;;2.00;;
21677;SDS011;11000;50.360;7.582;2023-07-29T05:48:35;2.20;;;2.00;;
21677;SDS011;11000;50.360;7.582;2023-07-29T05:50:55;4.10;;;2.20;;
21677;SDS011;11000;50.360;7.582;2023-07-29T05:53:16;4.67;;;1.83;;
21677;SDS011;11000;50.360;7.582;2023-07-29T05:55:36;2.83;;;2.20;;
21677;SDS011;11000;50.360;7.582;2023-07-29T05:57:57;5.53;;;2.47;;
21677;SDS011;11000;50.360;7.582;2023-07-29T06:00:17;2.13;;;1.97;;
21677;SDS011;11000;50.360;7.582;2023-07-29T06:02:38;2.50;;;2.30;;
21677;SDS011;11000;50.360;7.582;2023-07-29T06:05:00;2.07;;;1.97;;
21677;SDS011;11000;50.360;7.582;2023-07-29T06:07:23;2.70;;;2.10;;
21677;SDS011;11000;50.360;7.582;2023-07-29T06:09:43;3.30;;;1.70;;
21677;SDS011;11000;50.360;7.582;2023-07-29T06:12:04;2.43;;;1.83;;
21677;SDS011;11000;50.360;7.582;2023-07-29T06:14:24;5.77;;;2.27;;
21677;SDS011;11000;50.360;7.582;2023-07-29T06:16:45;2.77;;;1.97;;
21677;SDS011;11000;50.360;7.582;2023-07-29T06:19:06;2.00;;;1.80;;
21677;SDS011;11000;50.360;7.582;2023-07-29T06:21:28;2.13;;;1.77;;
21677;SDS011;11000;50.360;7.582;2023-07-29T06:23:49;2.17;;;2.00;;
21677;SDS011;11000;50.360;7.582;2023-07-29T06:26:09;3.63;;;1.60;;
21677;SDS011;11000;50.360;7.582;2023-07-29T06:28:30;2.60;;;1.80;;
21677;SDS011;11000;50.360;7.582;2023-07-29T06:30:50;1.60;;;1.50;;
21677;SDS011;11000;50.360;7.582;2023-07-29T06:33:11;2.80;;;2.30;;
21677;SDS011;11000;50.360;7.582;2023-07-29T06:35:31;2.00;;;1.67;;
21677;SDS011;11000;50.360;7.582;2023-07-29T06:37:52;3.10;;;1.77;;
21677;SDS011;11000;50.360;7.582;2023-07-29T06:40:12;3.07;;;2.17;;
21677;SDS011;11000;50.360;7.582;2023-07-29T06:42:33;6.30;;;2.20;;
21677;SDS011;11000;50.360;7.582;2023-07-29T06:44:54;2.60;;;2.40;;
21677;SDS011;11000;50.360;7.582;2023-07-29T06:47:14;3.50;;;2.20;;
21677;SDS011;11000;50.360;7.582;2023-07-29T06:49:35;2.33;;;2.10;;
21677;SDS011;11000;50.360;7.582;2023-07-29T06:51:55;2.90;;;2.07;;
21677;SDS011;11000;50.360;7.582;2023-07-29T06:54:16;4.33;;;2.30;;
21677;SDS011;11000;50.360;7.582;2023-07-29T06:56:37;2.10;;;1.90;;
21677;SDS011;11000;50.360;7.582;2023-07-29T06:58:58;2.27;;;1.80;;
21677;SDS011;11000;50.360;7.582;2023-07-29T07:01:18;2.93;;;2.00;;
21677;SDS011;11000;50.360;7.582;2023-07-29T07:03:39;3.63;;;1.80;;
21677;SDS011;11000;50.360;7.582;2023-07-29T07:05:59;2.70;;;1.77;;
21677;SDS011;11000;50.360;7.582;2023-07-29T07:08:20;2.07;;;1.70;;
21677;SDS011;11000;50.360;7.582;2023-07-29T07:10:40;2.63;;;1.70;;
21677;SDS011;11000;50.360;7.582;2023-07-29T07:13:01;3.17;;;1.80;;
21677;SDS011;11000;50.360;7.582;2023-07-29T07:15:21;2.83;;;1.47;;
21677;SDS011;11000;50.360;7.582;2023-07-29T07:17:42;4.73;;;1.70;;
21677;SDS011;11000;50.360;7.582;2023-07-29T07:20:02;2.73;;;1.60;;
21677;SDS011;11000;50.360;7.582;2023-07-29T07:22:23;3.87;;;1.50;;
21677;SDS011;11000;50.360;7.582;2023-07-29T07:24:44;1.53;;;1.43;;
21677;SDS011;11000;50.360;7.582;2023-07-29T07:27:04;2.70;;;1.60;;
21677;SDS011;11000;50.360;7.582;2023-07-29T07:29:25;2.80;;;1.63;;
21677;SDS011;11000;50.360;7.582;2023-07-29T07:31:52;1.70;;;1.47;;
21677;SDS011;11000;50.360;7.582;2023-07-29T07:34:13;2.67;;;1.17;;
21677;SDS011;11000;50.360;7.582;2023-07-29T07:36:34;1.20;;;1.10;;
21677;SDS011;11000;50.360;7.582;2023-07-29T07:38:55;1.77;;;1.13;;
21677;SDS011;11000;50.360;7.582;2023-07-29T07:41:15;2.73;;;1.20;;
21677;SDS011;11000;50.360;7.582;2023-07-29T07:43:36;1.40;;;0.87;;
21677;SDS011;11000;50.360;7.582;2023-07-29T07:45:57;1.90;;;1.00;;
21677;SDS011;11000;50.360;7.582;2023-07-29T07:48:19;1.90;;;1.20;;
21677;SDS011;11000;50.360;7.582;2023-07-29T07:50:40;1.80;;;1.40;;
21677;SDS011;11000;50.360;7.582;2023-07-29T07:53:00;1.00;;;0.93;;
21677;SDS011;11000;50.360;7.582;2023-07-29T07:55:21;1.70;;;0.93;;
21677;SDS011;11000;50.360;7.582;2023-07-29T07:57:41;2.03;;;0.73;;
21677;SDS011;11000;50.360;7.582;2023-07-29T08:00:02;1.13;;;0.90;;
21677;SDS011;11000;50.360;7.582;2023-07-29T08:02:24;0.90;;;0.90;;
21677;SDS011;11000;50.360;7.582;2023-07-29T08:04:44;1.17;;;0.97;;
21677;SDS011;11000;50.360;7.582;2023-07-29T08:07:05;2.70;;;1.10;;
21677;SDS011;11000;50.360;7.582;2023-07-29T08:09:25;2.13;;;1.20;;
21677;SDS011;11000;50.360;7.582;2023-07-29T08:11:46;3.70;;;1.40;;
21677;SDS011;11000;50.360;7.582;2023-07-29T08:14:07;1.13;;;1.03;;
21677;SDS011;11000;50.360;7.582;2023-07-29T08:16:27;2.20;;;1.10;;
21677;SDS011;11000;50.360;7.582;2023-07-29T08:18:48;2.53;;;1.07;;
21677;SDS011;11000;50.360;7.582;2023-07-29T08:21:08;1.30;;;0.90;;
21677;SDS011;11000;50.360;7.582;2023-07-29T08:23:29;0.93;;;0.93;;
21677;SDS011;11000;50.360;7.582;2023-07-29T08:25:52;2.00;;;1.30;;
21677;SDS011;11000;50.360;7.582;2023-07-29T08:28:13;1.10;;;1.00;;
21677;SDS011;11000;50.360;7.582;2023-07-29T08:30:34;1.20;;;1.10;;
21677;SDS011;11000;50.360;7.582;2023-07-29T08:32:54;1.07;;;0.83;;
21677;SDS011;11000;50.360;7.582;2023-07-29T08:35:15;3.60;;;1.00;;
21677;SDS011;11000;50.360;7.582;2023-07-29T08:37:35;1.73;;;0.93;;
21677;SDS011;11000;50.360;7.582;2023-07-29T08:39:56;2.00;;;0.70;;
21677;SDS011;11000;50.360;7.582;2023-07-29T08:42:16;1.37;;;0.90;;
21677;SDS011;11000;50.360;7.582;2023-07-29T08:44:43;1.50;;;1.40;;
21677;SDS011;11000;50.360;7.582;2023-07-29T08:47:04;2.37;;;1.40;;
21677;SDS011;11000;50.360;7.582;2023-07-29T08:49:25;1.73;;;1.13;;
21677;SDS011;11000;50.360;7.582;2023-07-29T08:51:48;1.40;;;1.23;;
21677;SDS011;11000;50.360;7.582;2023-07-29T08:54:09;2.40;;;1.30;;
21677;SDS011;11000;50.360;7.582;2023-07-29T08:56:30;2.00;;;1.00;;
21677;SDS011;11000;50.360;7.582;2023-07-29T08:58:51;1.73;;;1.13;;
21677;SDS011;11000;50.360;7.582;2023-07-29T09:01:12;2.13;;;0.90;;
21677;SDS011;11000;50.360;7.582;2023-07-29T09:03:34;3.53;;;1.23;;
21677;SDS011;11000;50.360;7.582;2023-07-29T09:05:56;2.37;;;1.20;;
21677;SDS011;11000;50.360;7.582;2023-07-29T09:08:18;1.20;;;1.10;;
21677;SDS011;11000;50.360;7.582;2023-07-29T09:10:39;4.67;;;1.27;;
21677;SDS011;11000;50.360;7.582;2023-07-29T09:13:00;1.40;;;1.20;;
21677;SDS011;11000;50.360;7.582;2023-07-29T09:15:26;0.93;;;0.93;;
21677;SDS011;11000;50.360;7.582;2023-07-29T09:17:51;1.97;;;1.07;;
21677;SDS011;11000;50.360;7.582;2023-07-29T09:20:12;3.73;;;1.47;;
21677;SDS011;11000;50.360;7.582;2023-07-29T09:22:33;1.40;;;1.30;;
21677;SDS011;11000;50.360;7.582;2023-07-29T09:24:54;1.10;;;1.00;;
21677;SDS011;11000;50.360;7.582;2023-07-29T09:27:24;2.23;;;1.17;;
21677;SDS011;11000;50.360;7.582;2023-07-29T09:29:45;4.30;;;1.30;;
21677;SDS011;11000;50.360;7.582;2023-07-29T09:32:23;3.37;;;1.70;;
21677;SDS011;11000;50.360;7.582;2023-07-29T09:34:45;1.43;;;1.33;;
21677;SDS011;11000;50.360;7.582;2023-07-29T09:37:06;2.10;;;1.30;;
21677;SDS011;11000;50.360;7.582;2023-07-29T09:39:27;1.50;;;1.40;;
21677;SDS011;11000;50.360;7.582;2023-07-29T09:41:51;1.70;;;1.60;;
21677;SDS011;11000;50.360;7.582;2023-07-29T09:44:12;1.60;;;1.23;;
21677;SDS011;11000;50.360;7.582;2023-07-29T09:46:36;2.27;;;1.80;;
21677;SDS011;11000;50.360;7.582;2023-07-29T09:48:58;2.40;;;1.60;;
21677;SDS011;11000;50.360;7.582;2023-07-29T09:51:19;1.50;;;1.40;;
21677;SDS011;11000;50.360;7.582;2023-07-29T09:53:46;1.57;;;1.30;;
21677;SDS011;11000;50.360;7.582;2023-07-29T09:56:07;2.00;;;1.70;;
21677;SDS011;11000;50.360;7.582;2023-07-29T09:58:28;1.67;;;1.57;;
21677;SDS011;11000;50.360;7.582;2023-07-29T10:00:49;2.40;;;1.27;;
21677;SDS011;11000;50.360;7.582;2023-07-29T10:03:10;1.97;;;1.63;;
21677;SDS011;11000;50.360;7.582;2023-07-29T10:05:31;1.50;;;1.40;;
21677;SDS011;11000;50.360;7.582;2023-07-29T10:07:54;2.80;;;1.80;;
21677;SDS011;11000;50.360;7.582;2023-07-29T10:10:16;2.03;;;1.73;;
21677;SDS011;11000;50.360;7.582;2023-07-29T10:12:37;2.00;;;1.60;;
21677;SDS011;11000;50.360;7.582;2023-07-29T10:15:00;2.10;;;1.57;;
21677;SDS011;11000;50.360;7.582;2023-07-29T10:17:23;1.77;;;1.67;;
21677;SDS011;11000;50.360;7.582;2023-07-29T10:19:45;1.70;;;1.60;;
21677;SDS011;11000;50.360;7.582;2023-07-29T10:22:07;1.50;;;1.40;;
21677;SDS011;11000;50.360;7.582;2023-07-29T10:24:32;1.50;;;1.40;;
21677;SDS011;11000;50.360;7.582;2023-07-29T10:26:53;2.97;;;1.30;;
21677;SDS011;11000;50.360;7.582;2023-07-29T10:29:18;2.53;;;1.70;;
21677;SDS011;11000;50.360;7.582;2023-07-29T10:31:42;1.37;;;1.20;;
21677;SDS011;11000;50.360;7.582;2023-07-29T10:34:04;2.07;;;1.67;;
21677;SDS011;11000;50.360;7.582;2023-07-29T10:36:25;2.53;;;1.50;;
21677;SDS011;11000;50.360;7.582;2023-07-29T10:38:46;1.93;;;1.50;;
21677;SDS011;11000;50.360;7.582;2023-07-29T10:41:07;3.37;;;1.53;;
21677;SDS011;11000;50.360;7.582;2023-07-29T10:43:31;3.03;;;1.30;;
21677;SDS011;11000;50.360;7.582;2023-07-29T10:45:54;2.37;;;1.57;;
21677;SDS011;11000;50.360;7.582;2023-07-29T10:51:40;1.93;;;1.30;;
21677;SDS011;11000;50.360;7.582;2023-07-29T10:53:44;1.53;;;1.37;;
21677;SDS011;11000;50.360;7.582;2023-07-29T10:56:05;2.17;;;1.40;;
21677;SDS011;11000;50.360;7.582;2023-07-29T10:58:25;1.80;;;1.43;;
21677;SDS011;11000;50.360;7.582;2023-07-29T11:00:50;1.60;;;1.50;;
21677;SDS011;11000;50.360;7.582;2023-07-29T11:03:11;3.70;;;1.40;;
21677;SDS011;11000;50.360;7.582;2023-07-29T11:05:46;2.07;;;1.37;;
21677;SDS011;11000;50.360;7.582;2023-07-29T11:08:21;1.30;;;1.20;;
21677;SDS011;11000;50.360;7.582;2023-07-29T11:11:02;2.80;;;1.40;;
21677;SDS011;11000;50.360;7.582;2023-07-29T11:13:27;2.00;;;1.30;;
21677;SDS011;11000;50.360;7.582;2023-07-29T11:15:49;1.60;;;1.50;;
21677;SDS011;11000;50.360;7.582;2023-07-29T11:18:10;1.43;;;1.33;;
21677;SDS011;11000;50.360;7.582;2023-07-29T11:20:35;1.40;;;1.30;;
21677;SDS011;11000;50.360;7.582;2023-07-29T11:22:56;1.87;;;1.50;;
21677;SDS011;11000;50.360;7.582;2023-07-29T11:25:18;1.67;;;1.27;;
21677;SDS011;11000;50.360;7.582;2023-07-29T11:27:42;1.20;;;1.07;;
21677;SDS011;11000;50.360;7.582;2023-07-29T11:30:04;4.37;;;3.10;;
21677;SDS011;11000;50.360;7.582;2023-07-29T11:32:26;2.90;;;1.90;;
21677;SDS011;11000;50.360;7.582;2023-07-29T11:34:47;2.10;;;1.80;;
21677;SDS011;11000;50.360;7.582;2023-07-29T11:37:11;1.63;;;1.53;;
21677;SDS011;11000;50.360;7.582;2023-07-29T11:39:32;4.80;;;1.77;;
21677;SDS011;11000;50.360;7.582;2023-07-29T11:41:53;2.60;;;2.40;;
21677;SDS011;11000;50.360;7.582;2023-07-29T11:44:16;2.23;;;2.03;;
21677;SDS011;11000;50.360;7.582;2023-07-29T11:46:37;3.27;;;2.40;;
21677;SDS011;11000;50.360;7.582;2023-07-29T11:48:59;5.53;;;1.70;;
21677;SDS011;11000;50.360;7.582;2023-07-29T11:51:21;1.73;;;1.63;;
21677;SDS011;11000;50.360;7.582;2023-07-29T11:53:42;5.07;;;1.70;;
21677;SDS011;11000;50.360;7.582;2023-07-29T11:56:03;2.30;;;1.90;;
21677;SDS011;11000;50.360;7.582;2023-07-29T11:58:24;2.00;;;1.80;;
21677;SDS011;11000;50.360;7.582;2023-07-29T12:00:44;3.57;;;1.90;;
21677;SDS011;11000;50.360;7.582;2023-07-29T12:03:06;2.30;;;2.10;;
21677;SDS011;11000;50.360;7.582;2023-07-29T12:05:28;3.90;;;1.80;;
21677;SDS011;11000;50.360;7.582;2023-07-29T12:07:49;2.93;;;1.67;;
21677;SDS011;11000;50.360;7.582;2023-07-29T12:10:10;5.40;;;1.90;;
21677;SDS011;11000;50.360;7.582;2023-07-29T12:12:31;4.90;;;1.80;;
21677;SDS011;11000;50.360;7.582;2023-07-29T12:14:53;3.13;;;1.40;;
21677;SDS011;11000;50.360;7.582;2023-07-29T12:17:15;2.47;;;1.70;;
21677;SDS011;11000;50.360;7.582;2023-07-29T12:19:36;1.77;;;1.67;;
21677;SDS011;11000;50.360;7.582;2023-07-29T12:21:57;2.00;;;1.80;;
21677;SDS011;11000;50.360;7.582;2023-07-29T12:24:18;2.00;;;1.60;;
21677;SDS011;11000;50.360;7.582;2023-07-29T12:26:38;1.73;;;1.40;;
21677;SDS011;11000;50.360;7.582;2023-07-29T12:29:10;3.93;;;1.90;;
21677;SDS011;11000;50.360;7.582;2023-07-29T12:31:37;2.37;;;1.63;;
21677;SDS011;11000;50.360;7.582;2023-07-29T12:33:57;2.13;;;1.30;;
21677;SDS011;11000;50.360;7.582;2023-07-29T12:36:18;1.80;;;1.70;;
21677;SDS011;11000;50.360;7.582;2023-07-29T12:38:39;3.43;;;1.50;;
21677;SDS011;11000;50.360;7.582;2023-07-29T12:41:02;4.97;;;1.77;;
21677;SDS011;11000;50.360;7.582;2023-07-29T12:43:22;2.47;;;1.90;;
21677;SDS011;11000;50.360;7.582;2023-07-29T12:45:44;1.90;;;1.80;;
21677;SDS011;11000;50.360;7.582;2023-07-29T12:48:05;3.80;;;1.43;;
21677;SDS011;11000;50.360;7.582;2023-07-29T12:50:26;3.53;;;1.60;;
21677;SDS011;11000;50.360;7.582;2023-07-29T12:52:46;2.00;;;1.80;;
21677;SDS011;11000;50.360;7.582;2023-07-29T12:55:07;1.67;;;1.57;;
21677;SDS011;11000;50.360;7.582;2023-07-29T12:57:28;3.63;;;1.70;;
21677;SDS011;11000;50.360;7.582;2023-07-29T12:59:49;1.90;;;1.73;;
21677;SDS011;11000;50.360;7.582;2023-07-29T13:02:09;1.97;;;1.73;;
21677;SDS011;11000;50.360;7.582;2023-07-29T13:04:30;3.13;;;2.27;;
21677;SDS011;11000;50.360;7.582;2023-07-29T13:06:50;1.63;;;1.40;;
21677;SDS011;11000;50.360;7.582;2023-07-29T13:09:11;3.13;;;1.33;;
21677;SDS011;11000;50.360;7.582;2023-07-29T13:11:31;1.83;;;1.70;;
21677;SDS011;11000;50.360;7.582;2023-07-29T13:13:52;1.77;;;1.47;;
21677;SDS011;11000;50.360;7.582;2023-07-29T13:16:13;3.53;;;1.67;;
21677;SDS011;11000;50.360;7.582;2023-07-29T13:18:33;1.73;;;1.53;;
21677;SDS011;11000;50.360;7.582;2023-07-29T13:20:54;2.70;;;1.47;;
21677;SDS011;11000;50.360;7.582;2023-07-29T13:23:15;1.63;;;1.53;;
21677;SDS011;11000;50.360;7.582;2023-07-29T13:25:36;1.70;;;1.60;;
21677;SDS011;11000;50.360;7.582;2023-07-29T13:27:56;9.50;;;2.03;;
21677;SDS011;11000;50.360;7.582;2023-07-29T13:30:17;1.97;;;1.70;;
21677;SDS011;11000;50.360;7.582;2023-07-29T13:32:37;2.27;;;1.63;;
21677;SDS011;11000;50.360;7.582;2023-07-29T13:34:58;1.67;;;1.57;;
21677;SDS011;11000;50.360;7.582;2023-07-29T13:37:18;3.37;;;1.67;;
21677;SDS011;11000;50.360;7.582;2023-07-29T13:39:39;1.47;;;1.37;;
21677;SDS011;11000;50.360;7.582;2023-07-29T13:42:00;1.50;;;1.40;;
21677;SDS011;11000;50.360;7.582;2023-07-29T13:44:20;1.60;;;1.50;;
21677;SDS011;11000;50.360;7.582;2023-07-29T13:46:41;1.60;;;1.50;;
21677;SDS011;11000;50.360;7.582;2023-07-29T13:49:01;1.30;;;1.20;;
21677;SDS011;11000;50.360;7.582;2023-07-29T13:51:23;1.80;;;1.70;;
21677;SDS011;11000;50.360;7.582;2023-07-29T13:53:43;1.97;;;1.80;;
21677;SDS011;11000;50.360;7.582;2023-07-29T13:56:04;4.50;;;2.17;;
21677;SDS011;11000;50.360;7.582;2023-07-29T13:58:24;2.13;;;1.60;;
21677;SDS011;11000;50.360;7.582;2023-07-29T14:00:46;1.73;;;1.53;;
21677;SDS011;11000;50.360;7.582;2023-07-29T14:03:06;2.67;;;1.93;;
21677;SDS011;11000;50.360;7.582;2023-07-29T14:05:27;2.20;;;1.80;;
21677;SDS011;11000;50.360;7.582;2023-07-29T14:07:47;2.37;;;1.70;;
21677;SDS011;11000;50.360;7.582;2023-07-29T14:10:08;2.07;;;1.63;;
21677;SDS011;11000;50.360;7.582;2023-07-29T14:12:28;1.93;;;1.83;;
21677;SDS011;11000;50.360;7.582;2023-07-29T14:14:49;5.17;;;1.90;;
21677;SDS011;11000;50.360;7.582;2023-07-29T14:17:09;1.93;;;1.83;;
21677;SDS011;11000;50.360;7.582;2023-07-29T14:19:31;2.00;;;1.80;;
21677;SDS011;11000;50.360;7.582;2023-07-29T14:21:51;2.63;;;1.80;;